sensor_id;sensor_type;location;lat;lon;timestamp;pressure;altitude;pressure_sealevel;temperature;humidity
21102;BME280;10709;49.006;12.100;2023-04-26T00:01:09;48655.94;;;-146.00;63.37
21102;BME280;10709;49.006;12.100;2023-04-26T00:03:36;48655.94;;;-146.00;63.30
21102;BME280;10709;49.006;12.100;2023-04-26T00:06:03;48644.16;;;-146.00;63.51
21102;BME280;10709;49.006;12.100;2023-04-26T00:08:36;48648.09;;;-146.00;63.49
21102;BME280;10709;49.006;12.100;2023-04-26T00:11:03;48667.69;;;-146.00;63.58
21102;BME280;10709;49.006;12.100;2023-04-26T00:13:29;48667.69;;;-146.00;64.00
21102;BME280;10709;49.006;12.100;2023-04-26T00:15:56;48665.72;;;-146.00;64.11
21102;BME280;10709;49.006;12.100;2023-04-26T00:18:22;48671.59;;;-146.00;64.33
21102;BME280;10709;49.006;12.100;2023-04-26T00:20:49;48648.09;;;-146.00;64.71
21102;BME280;10709;49.006;12.100;2023-04-26T00:23:15;48648.09;;;-146.00;64.82
21102;BME280;10709;49.006;12.100;2023-04-26T00:25:42;48663.75;;;-146.00;64.73
21102;BME280;10709;49.006;12.100;2023-04-26T00:28:09;48640.25;;;-146.00;64.90
21102;BME280;10709;49.006;12.100;2023-04-26T00:30:35;48671.59;;;-146.00;64.84
21102;BME280;10709;49.006;12.100;2023-04-26T00:33:06;48652.00;;;-146.00;64.79
21102;BME280;10709;49.006;12.100;2023-04-26T00:35:33;48644.16;;;-146.00;65.09
21102;BME280;10709;49.006;12.100;2023-04-26T00:38:00;48671.59;;;-146.00;65.02
21102;BME280;10709;49.006;12.100;2023-04-26T00:40:26;48655.94;;;-146.00;64.67
21102;BME280;10709;49.006;12.100;2023-04-26T00:42:59;48644.16;;;-146.00;65.20
21102;BME280;10709;49.006;12.100;2023-04-26T00:45:25;48657.88;;;-146.00;65.00
21102;BME280;10709;49.006;12.100;2023-04-26T00:47:52;48679.44;;;-146.00;65.39
21102;BME280;10709;49.006;12.100;2023-04-26T00:50:19;48689.22;;;-146.00;65.05
21102;BME280;10709;49.006;12.100;2023-04-26T00:52:46;48653.97;;;-146.00;65.25
21102;BME280;10709;49.006;12.100;2023-04-26T00:55:13;48667.69;;;-146.00;65.18
21102;BME280;10709;49.006;12.100;2023-04-26T00:57:39;48655.94;;;-146.00;65.46
21102;BME280;10709;49.006;12.100;2023-04-26T01:00:07;48659.84;;;-146.00;65.59
21102;BME280;10709;49.006;12.100;2023-04-26T01:02:33;48648.09;;;-146.00;65.95
21102;BME280;10709;49.006;12.100;2023-04-26T01:05:00;48628.50;;;-146.00;65.79
21102;BME280;10709;49.006;12.100;2023-04-26T01:07:26;48659.84;;;-146.00;65.71
21102;BME280;10709;49.006;12.100;2023-04-26T01:09:54;48655.94;;;-146.00;65.73
21102;BME280;10709;49.006;12.100;2023-04-26T01:12:22;48644.16;;;-146.00;65.80
21102;BME280;10709;49.006;12.100;2023-04-26T01:14:50;48659.84;;;-146.00;66.03
21102;BME280;10709;49.006;12.100;2023-04-26T01:17:17;48636.34;;;-146.00;65.68
21102;BME280;10709;49.006;12.100;2023-04-26T01:19:46;48655.94;;;-146.00;65.77
21102;BME280;10709;49.006;12.100;2023-04-26T01:22:13;48632.41;;;-146.00;65.91
21102;BME280;10709;49.006;12.100;2023-04-26T01:24:41;48652.00;;;-146.00;66.19
21102;BME280;10709;49.006;12.100;2023-04-26T01:27:09;48655.94;;;-146.00;66.40
21102;BME280;10709;49.006;12.100;2023-04-26T01:29:35;48659.84;;;-146.00;66.64
21102;BME280;10709;49.006;12.100;2023-04-26T01:32:02;48640.25;;;-146.00;66.77
21102;BME280;10709;49.006;12.100;2023-04-26T01:34:28;48652.00;;;-146.00;67.16
21102;BME280;10709;49.006;12.100;2023-04-26T01:36:55;48655.94;;;-146.00;67.18
21102;BME280;10709;49.006;12.100;2023-04-26T01:39:21;48667.69;;;-146.00;67.05
21102;BME280;10709;49.006;12.100;2023-04-26T01:41:48;48652.00;;;-146.00;66.87
21102;BME280;10709;49.006;12.100;2023-04-26T01:44:14;48659.84;;;-146.00;66.85
21102;BME280;10709;49.006;12.100;2023-04-26T01:46:41;48646.13;;;-146.00;66.58
21102;BME280;10709;49.006;12.100;2023-04-26T01:49:08;48616.75;;;-146.00;66.93
21102;BME280;10709;49.006;12.100;2023-04-26T01:51:34;48659.84;;;-146.00;66.55
21102;BME280;10709;49.006;12.100;2023-04-26T01:54:01;48652.00;;;-146.00;67.04
21102;BME280;10709;49.006;12.100;2023-04-26T01:56:28;48628.50;;;-146.00;67.49
21102;BME280;10709;49.006;12.100;2023-04-26T01:58:54;48655.94;;;-146.00;67.95
21102;BME280;10709;49.006;12.100;2023-04-26T02:01:21;48640.25;;;-146.00;67.62
21102;BME280;10709;49.006;12.100;2023-04-26T02:03:48;48648.09;;;-146.00;68.13
21102;BME280;10709;49.006;12.100;2023-04-26T02:06:14;48640.25;;;-146.00;68.13
21102;BME280;10709;49.006;12.100;2023-04-26T02:08:41;48652.00;;;-146.00;68.46
21102;BME280;10709;49.006;12.100;2023-04-26T02:11:07;48620.66;;;-146.00;68.24
21102;BME280;10709;49.006;12.100;2023-04-26T02:13:34;48677.47;;;-146.00;67.86
21102;BME280;10709;49.006;12.100;2023-04-26T02:16:00;48642.22;;;-146.00;67.92
21102;BME280;10709;49.006;12.100;2023-04-26T02:18:27;48663.75;;;-146.00;67.56
21102;BME280;10709;49.006;12.100;2023-04-26T02:20:55;48640.25;;;-146.00;67.79
21102;BME280;10709;49.006;12.100;2023-04-26T02:23:21;48648.09;;;-146.00;68.10
21102;BME280;10709;49.006;12.100;2023-04-26T02:25:49;48618.72;;;-146.00;67.70
21102;BME280;10709;49.006;12.100;2023-04-26T02:28:16;48638.28;;;-146.00;67.87
21102;BME280;10709;49.006;12.100;2023-04-26T02:30:43;48648.09;;;-146.00;67.51
21102;BME280;10709;49.006;12.100;2023-04-26T02:33:10;48679.44;;;-146.00;67.76
21102;BME280;10709;49.006;12.100;2023-04-26T02:35:36;48636.34;;;-146.00;67.61
21102;BME280;10709;49.006;12.100;2023-04-26T02:38:03;48652.00;;;-146.00;67.17
21102;BME280;10709;49.006;12.100;2023-04-26T02:40:30;48657.88;;;-146.00;67.53
21102;BME280;10709;49.006;12.100;2023-04-26T02:42:56;48648.09;;;-146.00;67.16
21102;BME280;10709;49.006;12.100;2023-04-26T02:45:23;48653.97;;;-146.00;67.46
21102;BME280;10709;49.006;12.100;2023-04-26T02:47:49;48620.66;;;-146.00;67.49
21102;BME280;10709;49.006;12.100;2023-04-26T02:50:16;48640.25;;;-146.00;67.80
21102;BME280;10709;49.006;12.100;2023-04-26T02:52:42;48636.34;;;-146.00;67.60
21102;BME280;10709;49.006;12.100;2023-04-26T02:55:09;48659.84;;;-146.00;67.75
21102;BME280;10709;49.006;12.100;2023-04-26T02:57:35;48628.50;;;-146.00;67.74
21102;BME280;10709;49.006;12.100;2023-04-26T03:00:02;48655.94;;;-146.00;67.67
21102;BME280;10709;49.006;12.100;2023-04-26T03:02:30;48671.59;;;-146.00;67.37
21102;BME280;10709;49.006;12.100;2023-04-26T03:04:57;48650.06;;;-146.00;67.56
21102;BME280;10709;49.006;12.100;2023-04-26T03:07:24;48628.50;;;-146.00;67.98
21102;BME280;10709;49.006;12.100;2023-04-26T03:09:51;48644.16;;;-146.00;67.55
21102;BME280;10709;49.006;12.100;2023-04-26T03:12:18;48640.25;;;-146.00;67.92
21102;BME280;10709;49.006;12.100;2023-04-26T03:14:44;48652.00;;;-146.00;67.59
21102;BME280;10709;49.006;12.100;2023-04-26T03:17:11;48644.16;;;-146.00;67.81
21102;BME280;10709;49.006;12.100;2023-04-26T03:19:37;48638.28;;;-146.00;67.45
21102;BME280;10709;49.006;12.100;2023-04-26T03:22:04;48620.66;;;-146.00;67.70
21102;BME280;10709;49.006;12.100;2023-04-26T03:24:30;48671.59;;;-146.00;67.75
21102;BME280;10709;49.006;12.100;2023-04-26T03:26:57;48628.50;;;-146.00;67.67
21102;BME280;10709;49.006;12.100;2023-04-26T03:29:25;48636.34;;;-146.00;68.21
21102;BME280;10709;49.006;12.100;2023-04-26T03:31:52;48661.81;;;-146.00;69.06
21102;BME280;10709;49.006;12.100;2023-04-26T03:34:18;48655.94;;;-146.00;68.97
21102;BME280;10709;49.006;12.100;2023-04-26T03:36:45;48628.50;;;-146.00;69.10
21102;BME280;10709;49.006;12.100;2023-04-26T03:39:11;48644.16;;;-146.00;69.38
21102;BME280;10709;49.006;12.100;2023-04-26T03:41:38;48644.16;;;-146.00;68.84
21102;BME280;10709;49.006;12.100;2023-04-26T03:44:05;48636.34;;;-146.00;68.86
21102;BME280;10709;49.006;12.100;2023-04-26T03:46:32;48640.25;;;-146.00;69.23
21102;BME280;10709;49.006;12.100;2023-04-26T03:48:59;48632.41;;;-146.00;69.06
21102;BME280;10709;49.006;12.100;2023-04-26T03:51:25;48616.75;;;-146.00;69.23
21102;BME280;10709;49.006;12.100;2023-04-26T03:53:53;48646.13;;;-146.00;69.30
21102;BME280;10709;49.006;12.100;2023-04-26T03:56:20;48612.84;;;-146.00;69.14
21102;BME280;10709;49.006;12.100;2023-04-26T03:58:47;48640.25;;;-146.00;69.14
21102;BME280;10709;49.006;12.100;2023-04-26T04:01:14;48634.38;;;-146.00;69.47
21102;BME280;10709;49.006;12.100;2023-04-26T04:03:41;48620.66;;;-146.00;69.81
21102;BME280;10709;49.006;12.100;2023-04-26T04:06:07;48620.66;;;-146.00;69.63
21102;BME280;10709;49.006;12.100;2023-04-26T04:08:34;48644.16;;;-146.00;69.39
21102;BME280;10709;49.006;12.100;2023-04-26T04:11:00;48620.66;;;-146.00;69.45
21102;BME280;10709;49.006;12.100;2023-04-26T04:13:27;48610.88;;;-146.00;69.78
21102;BME280;10709;49.006;12.100;2023-04-26T04:15:53;48644.16;;;-146.00;69.67
21102;BME280;10709;49.006;12.100;2023-04-26T04:18:20;48620.66;;;-146.00;69.67
21102;BME280;10709;49.006;12.100;2023-04-26T04:20:46;48646.13;;;-146.00;69.39
21102;BME280;10709;49.006;12.100;2023-04-26T04:23:13;48608.91;;;-146.00;69.45
21102;BME280;10709;49.006;12.100;2023-04-26T04:25:39;48640.25;;;-146.00;69.12
21102;BME280;10709;49.006;12.100;2023-04-26T04:28:06;48624.59;;;-146.00;69.68
21102;BME280;10709;49.006;12.100;2023-04-26T04:30:33;48646.13;;;-146.00;69.38
21102;BME280;10709;49.006;12.100;2023-04-26T04:33:00;48618.72;;;-146.00;69.03
21102;BME280;10709;49.006;12.100;2023-04-26T04:35:30;48655.94;;;-146.00;68.90
21102;BME280;10709;49.006;12.100;2023-04-26T04:37:59;48634.38;;;-146.00;69.41
21102;BME280;10709;49.006;12.100;2023-04-26T04:40:26;48638.28;;;-146.00;68.74
21102;BME280;10709;49.006;12.100;2023-04-26T04:42:53;48655.94;;;-146.00;68.88
21102;BME280;10709;49.006;12.100;2023-04-26T04:45:21;48652.00;;;-146.00;68.90
21102;BME280;10709;49.006;12.100;2023-04-26T04:47:47;48636.34;;;-146.00;68.86
21102;BME280;10709;49.006;12.100;2023-04-26T04:50:14;48626.53;;;-146.00;69.00
21102;BME280;10709;49.006;12.100;2023-04-26T04:52:41;48628.50;;;-146.00;69.20
21102;BME280;10709;49.006;12.100;2023-04-26T04:55:07;48620.66;;;-146.00;69.23
21102;BME280;10709;49.006;12.100;2023-04-26T04:57:35;48640.25;;;-146.00;69.05
21102;BME280;10709;49.006;12.100;2023-04-26T05:00:02;48634.38;;;-146.00;69.27
21102;BME280;10709;49.006;12.100;2023-04-26T05:02:35;48624.59;;;-146.00;68.62
21102;BME280;10709;49.006;12.100;2023-04-26T05:05:03;48634.38;;;-146.00;68.83
21102;BME280;10709;49.006;12.100;2023-04-26T05:07:31;48636.34;;;-146.00;68.70
21102;BME280;10709;49.006;12.100;2023-04-26T05:09:58;48640.25;;;-146.00;69.14
21102;BME280;10709;49.006;12.100;2023-04-26T05:12:25;48636.34;;;-146.00;68.81
21102;BME280;10709;49.006;12.100;2023-04-26T05:14:51;48636.34;;;-146.00;69.21
21102;BME280;10709;49.006;12.100;2023-04-26T05:17:18;48642.22;;;-146.00;69.23
21102;BME280;10709;49.006;12.100;2023-04-26T05:19:45;48655.94;;;-146.00;69.03
21102;BME280;10709;49.006;12.100;2023-04-26T05:22:12;48624.59;;;-146.00;68.93
21102;BME280;10709;49.006;12.100;2023-04-26T05:24:47;48659.84;;;-146.00;68.70
21102;BME280;10709;49.006;12.100;2023-04-26T05:27:13;48632.41;;;-146.00;69.21
21102;BME280;10709;49.006;12.100;2023-04-26T05:29:40;48620.66;;;-146.00;69.03
21102;BME280;10709;49.006;12.100;2023-04-26T05:32:07;48628.50;;;-146.00;68.46
21102;BME280;10709;49.006;12.100;2023-04-26T05:34:34;48608.91;;;-146.00;68.50
21102;BME280;10709;49.006;12.100;2023-04-26T05:37:00;48628.50;;;-146.00;68.48
21102;BME280;10709;49.006;12.100;2023-04-26T05:39:26;48620.66;;;-146.00;68.37
21102;BME280;10709;49.006;12.100;2023-04-26T05:41:53;48628.50;;;-146.00;68.32
21102;BME280;10709;49.006;12.100;2023-04-26T05:44:19;48644.16;;;-146.00;68.79
21102;BME280;10709;49.006;12.100;2023-04-26T05:46:46;48634.38;;;-146.00;68.19
21102;BME280;10709;49.006;12.100;2023-04-26T05:49:12;48608.91;;;-146.00;68.00
21102;BME280;10709;49.006;12.100;2023-04-26T05:51:39;48636.34;;;-146.00;67.62
21102;BME280;10709;49.006;12.100;2023-04-26T05:54:05;48628.50;;;-146.00;67.55
21102;BME280;10709;49.006;12.100;2023-04-26T05:56:32;48636.34;;;-146.00;67.84
21102;BME280;10709;49.006;12.100;2023-04-26T05:58:59;48636.34;;;-146.00;67.31
21102;BME280;10709;49.006;12.100;2023-04-26T06:01:25;48636.34;;;-146.00;67.08
21102;BME280;10709;49.006;12.100;2023-04-26T06:03:52;48636.34;;;-146.00;67.01
21102;BME280;10709;49.006;12.100;2023-04-26T06:06:25;48620.66;;;-146.00;66.45
21102;BME280;10709;49.006;12.100;2023-04-26T06:08:53;48628.50;;;-146.00;66.83
21102;BME280;10709;49.006;12.100;2023-04-26T06:11:20;48644.16;;;-146.00;66.77
21102;BME280;10709;49.006;12.100;2023-04-26T06:13:47;48642.22;;;-146.00;66.14
21102;BME280;10709;49.006;12.100;2023-04-26T06:16:13;48626.53;;;-146.00;65.60
21102;BME280;10709;49.006;12.100;2023-04-26T06:18:40;48655.94;;;-146.00;65.51
21102;BME280;10709;49.006;12.100;2023-04-26T06:21:06;48616.75;;;-146.00;66.04
21102;BME280;10709;49.006;12.100;2023-04-26T06:23:33;48628.50;;;-146.00;65.17
21102;BME280;10709;49.006;12.100;2023-04-26T06:26:00;48612.84;;;-146.00;64.17
21102;BME280;10709;49.006;12.100;2023-04-26T06:28:26;48632.41;;;-146.00;63.69
21102;BME280;10709;49.006;12.100;2023-04-26T06:30:53;48608.91;;;-146.00;62.98
21102;BME280;10709;49.006;12.100;2023-04-26T06:33:19;48620.66;;;-146.00;62.56
21102;BME280;10709;49.006;12.100;2023-04-26T06:35:45;48644.16;;;-146.00;63.71
21102;BME280;10709;49.006;12.100;2023-04-26T06:38:12;48632.41;;;-146.00;63.72
21102;BME280;10709;49.006;12.100;2023-04-26T06:40:39;48652.00;;;-146.00;63.82
21102;BME280;10709;49.006;12.100;2023-04-26T06:43:05;48644.16;;;-146.00;63.70
21102;BME280;10709;49.006;12.100;2023-04-26T06:45:32;48646.13;;;-146.00;63.54
21102;BME280;10709;49.006;12.100;2023-04-26T06:47:58;48655.94;;;-146.00;63.25
21102;BME280;10709;49.006;12.100;2023-04-26T06:50:30;48628.50;;;-146.00;61.75
21102;BME280;10709;49.006;12.100;2023-04-26T06:52:56;48640.25;;;-146.00;59.75
21102;BME280;10709;49.006;12.100;2023-04-26T06:55:23;48636.34;;;-146.00;61.17
21102;BME280;10709;49.006;12.100;2023-04-26T06:57:49;48618.72;;;-146.00;59.77
21102;BME280;10709;49.006;12.100;2023-04-26T07:00:16;48632.41;;;-146.00;60.60
21102;BME280;10709;49.006;12.100;2023-04-26T07:02:45;48642.22;;;-146.00;60.18
21102;BME280;10709;49.006;12.100;2023-04-26T07:05:12;48636.34;;;-146.00;60.13
21102;BME280;10709;49.006;12.100;2023-04-26T07:07:40;48659.84;;;-146.00;59.44
21102;BME280;10709;49.006;12.100;2023-04-26T07:10:08;48628.50;;;-146.00;59.28
21102;BME280;10709;49.006;12.100;2023-04-26T07:12:34;48636.34;;;-146.00;57.17
21102;BME280;10709;49.006;12.100;2023-04-26T07:15:02;48628.50;;;-146.00;56.91
21102;BME280;10709;49.006;12.100;2023-04-26T07:17:28;48632.41;;;-146.00;57.46
21102;BME280;10709;49.006;12.100;2023-04-26T07:19:55;48632.41;;;-146.00;57.33
21102;BME280;10709;49.006;12.100;2023-04-26T07:22:21;48638.28;;;-146.00;57.39
21102;BME280;10709;49.006;12.100;2023-04-26T07:24:48;48636.34;;;-146.00;54.25
21102;BME280;10709;49.006;12.100;2023-04-26T07:27:14;48640.25;;;-146.00;55.35
21102;BME280;10709;49.006;12.100;2023-04-26T07:29:40;48655.94;;;-146.00;56.50
21102;BME280;10709;49.006;12.100;2023-04-26T07:32:07;48632.41;;;-146.00;53.65
21102;BME280;10709;49.006;12.100;2023-04-26T07:34:34;48632.41;;;-146.00;55.13
21102;BME280;10709;49.006;12.100;2023-04-26T07:37:00;48636.34;;;-146.00;55.95
21102;BME280;10709;49.006;12.100;2023-04-26T07:39:26;48616.75;;;-146.00;55.42
21102;BME280;10709;49.006;12.100;2023-04-26T07:41:53;48624.59;;;-146.00;52.15
21102;BME280;10709;49.006;12.100;2023-04-26T07:44:20;48648.09;;;-146.00;54.04
21102;BME280;10709;49.006;12.100;2023-04-26T07:46:47;48644.16;;;-146.00;53.73
21102;BME280;10709;49.006;12.100;2023-04-26T07:49:13;48663.75;;;-146.00;53.76
21102;BME280;10709;49.006;12.100;2023-04-26T07:51:42;48667.69;;;-146.00;53.40
21102;BME280;10709;49.006;12.100;2023-04-26T07:54:09;48648.09;;;-146.00;52.76
21102;BME280;10709;49.006;12.100;2023-04-26T07:56:36;48671.59;;;-146.00;53.53
21102;BME280;10709;49.006;12.100;2023-04-26T07:59:02;48648.09;;;-146.00;53.08
21102;BME280;10709;49.006;12.100;2023-04-26T08:01:30;48655.94;;;-146.00;52.46
21102;BME280;10709;49.006;12.100;2023-04-26T08:03:56;48644.16;;;-146.00;52.43
21102;BME280;10709;49.006;12.100;2023-04-26T08:06:23;48657.88;;;-146.00;51.48
21102;BME280;10709;49.006;12.100;2023-04-26T08:08:50;48636.34;;;-146.00;51.67
21102;BME280;10709;49.006;12.100;2023-04-26T08:11:18;48657.88;;;-146.00;53.18
21102;BME280;10709;49.006;12.100;2023-04-26T08:13:44;48669.63;;;-146.00;53.57
21102;BME280;10709;49.006;12.100;2023-04-26T08:16:11;48648.09;;;-146.00;53.13
21102;BME280;10709;49.006;12.100;2023-04-26T08:18:38;48652.00;;;-146.00;52.14
21102;BME280;10709;49.006;12.100;2023-04-26T08:21:05;48650.06;;;-146.00;52.06
21102;BME280;10709;49.006;12.100;2023-04-26T08:23:33;48636.34;;;-146.00;51.77
21102;BME280;10709;49.006;12.100;2023-04-26T08:26:01;48628.50;;;-146.00;51.34
21102;BME280;10709;49.006;12.100;2023-04-26T08:28:28;48648.09;;;-146.00;51.65
21102;BME280;10709;49.006;12.100;2023-04-26T08:30:54;48644.16;;;-146.00;51.84
21102;BME280;10709;49.006;12.100;2023-04-26T08:33:21;48646.13;;;-146.00;50.83
21102;BME280;10709;49.006;12.100;2023-04-26T08:35:48;48650.06;;;-146.00;50.61
21102;BME280;10709;49.006;12.100;2023-04-26T08:38:14;48634.38;;;-146.00;50.67
21102;BME280;10709;49.006;12.100;2023-04-26T08:40:42;48636.34;;;-146.00;51.28
21102;BME280;10709;49.006;12.100;2023-04-26T08:43:13;48657.88;;;-146.00;51.17
21102;BME280;10709;49.006;12.100;2023-04-26T08:45:41;48650.06;;;-146.00;51.19
21102;BME280;10709;49.006;12.100;2023-04-26T08:48:10;48642.22;;;-146.00;51.22
21102;BME280;10709;49.006;12.100;2023-04-26T08:50:43;48663.75;;;-146.00;50.83
21102;BME280;10709;49.006;12.100;2023-04-26T08:53:14;48659.84;;;-146.00;49.04
21102;BME280;10709;49.006;12.100;2023-04-26T08:55:47;48659.84;;;-146.00;49.91
21102;BME280;10709;49.006;12.100;2023-04-26T08:58:16;48620.66;;;-146.00;49.20
21102;BME280;10709;49.006;12.100;2023-04-26T09:00:43;48653.97;;;-146.00;49.03
21102;BME280;10709;49.006;12.100;2023-04-26T09:03:11;48661.81;;;-146.00;48.99
21102;BME280;10709;49.006;12.100;2023-04-26T09:05:39;48667.69;;;-146.00;50.21
21102;BME280;10709;49.006;12.100;2023-04-26T09:08:06;48659.84;;;-146.00;50.69
21102;BME280;10709;49.006;12.100;2023-04-26T09:10:33;48655.94;;;-146.00;49.42
21102;BME280;10709;49.006;12.100;2023-04-26T09:13:00;48636.34;;;-146.00;48.65
21102;BME280;10709;49.006;12.100;2023-04-26T09:15:27;48657.88;;;-146.00;47.23
21102;BME280;10709;49.006;12.100;2023-04-26T09:17:53;48640.25;;;-146.00;47.29
21102;BME280;10709;49.006;12.100;2023-04-26T09:20:28;48667.69;;;-146.00;45.84
21102;BME280;10709;49.006;12.100;2023-04-26T09:23:06;48655.94;;;-146.00;46.53
21102;BME280;10709;49.006;12.100;2023-04-26T09:25:34;48628.50;;;-146.00;46.14
21102;BME280;10709;49.006;12.100;2023-04-26T09:28:01;48655.94;;;-146.00;45.51
21102;BME280;10709;49.006;12.100;2023-04-26T09:30:37;48652.00;;;-146.00;45.78
21102;BME280;10709;49.006;12.100;2023-04-26T09:33:04;48652.00;;;-146.00;46.52
21102;BME280;10709;49.006;12.100;2023-04-26T09:35:33;48640.25;;;-146.00;45.08
21102;BME280;10709;49.006;12.100;2023-04-26T09:38:13;48655.94;;;-146.00;45.05
21102;BME280;10709;49.006;12.100;2023-04-26T09:40:47;48636.34;;;-146.00;44.46
21102;BME280;10709;49.006;12.100;2023-04-26T09:43:21;48665.72;;;-146.00;44.83
21102;BME280;10709;49.006;12.100;2023-04-26T09:45:49;48663.75;;;-146.00;44.70
21102;BME280;10709;49.006;12.100;2023-04-26T09:48:20;48663.75;;;-146.00;43.42
21102;BME280;10709;49.006;12.100;2023-04-26T09:50:50;48632.41;;;-146.00;44.41
21102;BME280;10709;49.006;12.100;2023-04-26T09:53:39;48659.84;;;-146.00;43.34
21102;BME280;10709;49.006;12.100;2023-04-26T09:58:37;48648.09;;;-146.00;43.92
21102;BME280;10709;49.006;12.100;2023-04-26T10:01:09;48636.34;;;-146.00;43.77
21102;BME280;10709;49.006;12.100;2023-04-26T10:03:36;48669.63;;;-146.00;43.96
21102;BME280;10709;49.006;12.100;2023-04-26T10:06:03;48665.72;;;-146.00;43.16
21102;BME280;10709;49.006;12.100;2023-04-26T10:08:30;48650.06;;;-146.00;44.78
21102;BME280;10709;49.006;12.100;2023-04-26T10:10:59;48640.25;;;-146.00;43.09
21102;BME280;10709;49.006;12.100;2023-04-26T10:13:27;48663.75;;;-146.00;43.98
21102;BME280;10709;49.006;12.100;2023-04-26T10:15:54;48644.16;;;-146.00;42.29
21102;BME280;10709;49.006;12.100;2023-04-26T10:18:21;48671.59;;;-146.00;41.12
21102;BME280;10709;49.006;12.100;2023-04-26T10:20:51;48665.72;;;-146.00;42.94
21102;BME280;10709;49.006;12.100;2023-04-26T10:23:21;48667.69;;;-146.00;42.38
21102;BME280;10709;49.006;12.100;2023-04-26T10:25:51;48673.56;;;-146.00;42.64
21102;BME280;10709;49.006;12.100;2023-04-26T10:31:11;48673.56;;;-146.00;41.59
21102;BME280;10709;49.006;12.100;2023-04-26T10:33:37;48650.06;;;-146.00;41.53
21102;BME280;10709;49.006;12.100;2023-04-26T10:38:33;48652.00;;;-146.00;42.11
21102;BME280;10709;49.006;12.100;2023-04-26T10:44:00;48679.44;;;-146.00;42.76
21102;BME280;10709;49.006;12.100;2023-04-26T10:46:50;48632.41;;;-146.00;41.68
21102;BME280;10709;49.006;12.100;2023-04-26T10:49:19;48648.09;;;-146.00;42.12
21102;BME280;10709;49.006;12.100;2023-04-26T10:52:10;48648.09;;;-146.00;40.59
21102;BME280;10709;49.006;12.100;2023-04-26T10:54:57;48659.84;;;-146.00;41.06
21102;BME280;10709;49.006;12.100;2023-04-26T10:57:53;48665.72;;;-146.00;41.25
21102;BME280;10709;49.006;12.100;2023-04-26T11:00:26;48652.00;;;-146.00;41.50
21102;BME280;10709;49.006;12.100;2023-04-26T11:03:00;48655.94;;;-146.00;41.31
21102;BME280;10709;49.006;12.100;2023-04-26T11:05:41;48667.69;;;-146.00;40.62
21102;BME280;10709;49.006;12.100;2023-04-26T11:10:39;48669.63;;;-146.00;40.87
21102;BME280;10709;49.006;12.100;2023-04-26T11:13:06;48653.97;;;-146.00;41.42
21102;BME280;10709;49.006;12.100;2023-04-26T11:15:33;48683.34;;;-146.00;40.95
21102;BME280;10709;49.006;12.100;2023-04-26T11:18:03;48644.16;;;-146.00;40.27
21102;BME280;10709;49.006;12.100;2023-04-26T11:20:31;48652.00;;;-146.00;41.06
21102;BME280;10709;49.006;12.100;2023-04-26T11:22:59;48663.75;;;-146.00;42.02
21102;BME280;10709;49.006;12.100;2023-04-26T11:25:26;48671.59;;;-146.00;41.01
21102;BME280;10709;49.006;12.100;2023-04-26T11:28:00;48679.44;;;-146.00;41.88
21102;BME280;10709;49.006;12.100;2023-04-26T11:30:31;48640.25;;;-146.00;40.55
21102;BME280;10709;49.006;12.100;2023-04-26T11:32:59;48675.50;;;-146.00;40.64
21102;BME280;10709;49.006;12.100;2023-04-26T11:35:26;48671.59;;;-146.00;40.43
21102;BME280;10709;49.006;12.100;2023-04-26T11:37:58;48655.94;;;-146.00;40.94
21102;BME280;10709;49.006;12.100;2023-04-26T11:40:30;48655.94;;;-146.00;40.98
21102;BME280;10709;49.006;12.100;2023-04-26T11:42:59;48665.72;;;-146.00;41.73
21102;BME280;10709;49.006;12.100;2023-04-26T11:45:26;48671.59;;;-146.00;41.72
21102;BME280;10709;49.006;12.100;2023-04-26T11:47:54;48640.25;;;-146.00;40.73
21102;BME280;10709;49.006;12.100;2023-04-26T11:50:20;48679.44;;;-146.00;41.43
21102;BME280;10709;49.006;12.100;2023-04-26T11:52:55;48667.69;;;-146.00;40.74
21102;BME280;10709;49.006;12.100;2023-04-26T11:55:23;48655.94;;;-146.00;41.40
21102;BME280;10709;49.006;12.100;2023-04-26T11:57:53;48663.75;;;-146.00;40.82
21102;BME280;10709;49.006;12.100;2023-04-26T12:00:20;48659.84;;;-146.00;41.10
21102;BME280;10709;49.006;12.100;2023-04-26T12:02:47;48640.25;;;-146.00;40.35
21102;BME280;10709;49.006;12.100;2023-04-26T12:05:22;48695.09;;;-146.00;40.73
21102;BME280;10709;49.006;12.100;2023-04-26T12:07:54;48665.72;;;-146.00;39.84
21102;BME280;10709;49.006;12.100;2023-04-26T12:10:26;48657.88;;;-146.00;40.73
21102;BME280;10709;49.006;12.100;2023-04-26T12:12:54;48671.59;;;-146.00;41.24
21102;BME280;10709;49.006;12.100;2023-04-26T12:15:27;48667.69;;;-146.00;41.36
21102;BME280;10709;49.006;12.100;2023-04-26T12:18:08;48655.94;;;-146.00;40.44
21102;BME280;10709;49.006;12.100;2023-04-26T12:20:37;48667.69;;;-146.00;41.20
21102;BME280;10709;49.006;12.100;2023-04-26T12:23:05;48667.69;;;-146.00;41.38
21102;BME280;10709;49.006;12.100;2023-04-26T12:25:33;48699.03;;;-146.00;41.25
21102;BME280;10709;49.006;12.100;2023-04-26T12:28:02;48671.59;;;-146.00;41.34
21102;BME280;10709;49.006;12.100;2023-04-26T12:30:29;48663.75;;;-146.00;40.64
21102;BME280;10709;49.006;12.100;2023-04-26T12:32:56;48691.19;;;-146.00;41.03
21102;BME280;10709;49.006;12.100;2023-04-26T12:35:34;48671.59;;;-146.00;40.40
21102;BME280;10709;49.006;12.100;2023-04-26T12:38:01;48667.69;;;-146.00;39.51
21102;BME280;10709;49.006;12.100;2023-04-26T12:40:28;48667.69;;;-146.00;39.90
21102;BME280;10709;49.006;12.100;2023-04-26T12:42:55;48663.75;;;-146.00;40.84
21102;BME280;10709;49.006;12.100;2023-04-26T12:45:22;48665.72;;;-146.00;40.16
21102;BME280;10709;49.006;12.100;2023-04-26T12:47:49;48675.50;;;-146.00;40.65